sensor_id;sensor_type;location;lat;lon;timestamp;temperature;humidity
22108;DHT22;11220;48.812;9.128;2023-07-22T00:00:24;18.20;91.80
22108;DHT22;11220;48.812;9.128;2023-07-22T00:02:51;18.20;91.80
22108;DHT22;11220;48.812;9.128;2023-07-22T00:05:16;18.10;91.70
22108;DHT22;11220;48.812;9.128;2023-07-22T00:07:48;18.10;91.80
22108;DHT22;11220;48.812;9.128;2023-07-22T00:10:14;18.10;92.00
22108;DHT22;11220;48.812;9.128;2023-07-22T00:12:39;18.00;92.10
22108;DHT22;11220;48.812;9.128;2023-07-22T00:15:05;18.00;92.10
22108;DHT22;11220;48.812;9.128;2023-07-22T00:17:31;17.90;92.20
22108;DHT22;11220;48.812;9.128;2023-07-22T00:19:57;17.90;92.20
22108;DHT22;11220;48.812;9.128;2023-07-22T00:22:22;17.90;92.40
22108;DHT22;11220;48.812;9.128;2023-07-22T00:24:48;17.80;92.40
22108;DHT22;11220;48.812;9.128;2023-07-22T00:27:14;17.80;92.40
22108;DHT22;11220;48.812;9.128;2023-07-22T00:29:39;17.80;92.30
22108;DHT22;11220;48.812;9.128;2023-07-22T00:32:07;17.70;92.40
22108;DHT22;11220;48.812;9.128;2023-07-22T00:34:34;17.70;92.50
22108;DHT22;11220;48.812;9.128;2023-07-22T00:36:59;17.70;92.60
22108;DHT22;11220;48.812;9.128;2023-07-22T00:39:25;17.60;92.70
22108;DHT22;11220;48.812;9.128;2023-07-22T00:41:50;17.60;92.70
22108;DHT22;11220;48.812;9.128;2023-07-22T00:44:16;17.60;92.60
22108;DHT22;11220;48.812;9.128;2023-07-22T00:46:41;17.60;92.50
22108;DHT22;11220;48.812;9.128;2023-07-22T00:49:07;17.50;92.50
22108;DHT22;11220;48.812;9.128;2023-07-22T00:51:33;17.50;92.60
22108;DHT22;11220;48.812;9.128;2023-07-22T00:53:59;17.50;92.80
22108;DHT22;11220;48.812;9.128;2023-07-22T00:56:24;17.40;92.90
22108;DHT22;11220;48.812;9.128;2023-07-22T00:58:51;17.40;92.80
22108;DHT22;11220;48.812;9.128;2023-07-22T01:01:17;17.40;92.90
22108;DHT22;11220;48.812;9.128;2023-07-22T01:03:42;17.40;92.90
22108;DHT22;11220;48.812;9.128;2023-07-22T01:06:09;17.40;92.90
22108;DHT22;11220;48.812;9.128;2023-07-22T01:08:35;17.40;92.90
22108;DHT22;11220;48.812;9.128;2023-07-22T01:11:00;17.30;92.80
22108;DHT22;11220;48.812;9.128;2023-07-22T01:13:26;17.30;92.80
22108;DHT22;11220;48.812;9.128;2023-07-22T01:15:52;17.30;92.80
22108;DHT22;11220;48.812;9.128;2023-07-22T01:18:18;17.20;92.80
22108;DHT22;11220;48.812;9.128;2023-07-22T01:20:45;17.20;92.70
22108;DHT22;11220;48.812;9.128;2023-07-22T01:23:11;17.20;92.70
22108;DHT22;11220;48.812;9.128;2023-07-22T01:25:37;17.20;92.70
22108;DHT22;11220;48.812;9.128;2023-07-22T01:28:02;17.20;92.80
22108;DHT22;11220;48.812;9.128;2023-07-22T01:30:28;17.10;92.80
22108;DHT22;11220;48.812;9.128;2023-07-22T01:32:54;17.10;93.00
22108;DHT22;11220;48.812;9.128;2023-07-22T01:35:19;17.10;93.00
22108;DHT22;11220;48.812;9.128;2023-07-22T01:37:46;17.30;93.10
22108;DHT22;11220;48.812;9.128;2023-07-22T01:40:12;17.10;92.90
22108;DHT22;11220;48.812;9.128;2023-07-22T01:42:41;17.10;92.90
22108;DHT22;11220;48.812;9.128;2023-07-22T01:45:08;17.00;92.80
22108;DHT22;11220;48.812;9.128;2023-07-22T01:47:35;17.00;92.80
22108;DHT22;11220;48.812;9.128;2023-07-22T01:50:01;17.00;92.90
22108;DHT22;11220;48.812;9.128;2023-07-22T01:52:27;16.90;92.80
22108;DHT22;11220;48.812;9.128;2023-07-22T01:54:53;16.90;92.80
22108;DHT22;11220;48.812;9.128;2023-07-22T01:57:18;16.90;92.90
22108;DHT22;11220;48.812;9.128;2023-07-22T01:59:44;16.90;93.00
22108;DHT22;11220;48.812;9.128;2023-07-22T02:02:09;16.90;93.10
22108;DHT22;11220;48.812;9.128;2023-07-22T02:04:35;16.90;93.20
22108;DHT22;11220;48.812;9.128;2023-07-22T02:07:00;16.80;93.10
22108;DHT22;11220;48.812;9.128;2023-07-22T02:09:26;16.90;93.20
22108;DHT22;11220;48.812;9.128;2023-07-22T02:11:52;16.80;93.10
22108;DHT22;11220;48.812;9.128;2023-07-22T02:14:19;16.80;93.10
22108;DHT22;11220;48.812;9.128;2023-07-22T02:16:44;16.80;93.00
22108;DHT22;11220;48.812;9.128;2023-07-22T02:19:10;16.80;93.10
22108;DHT22;11220;48.812;9.128;2023-07-22T02:21:35;16.80;93.20
22108;DHT22;11220;48.812;9.128;2023-07-22T02:24:01;16.80;93.20
22108;DHT22;11220;48.812;9.128;2023-07-22T02:26:26;17.10;93.40
22108;DHT22;11220;48.812;9.128;2023-07-22T02:28:52;16.80;93.20
22108;DHT22;11220;48.812;9.128;2023-07-22T02:31:17;16.70;93.30
22108;DHT22;11220;48.812;9.128;2023-07-22T02:33:43;16.70;93.50
22108;DHT22;11220;48.812;9.128;2023-07-22T02:36:09;16.80;93.60
22108;DHT22;11220;48.812;9.128;2023-07-22T02:38:34;16.80;93.60
22108;DHT22;11220;48.812;9.128;2023-07-22T02:41:04;16.80;93.70
22108;DHT22;11220;48.812;9.128;2023-07-22T02:43:32;16.80;93.70
22108;DHT22;11220;48.812;9.128;2023-07-22T02:46:01;16.80;93.70
22108;DHT22;11220;48.812;9.128;2023-07-22T02:48:27;16.80;93.70
22108;DHT22;11220;48.812;9.128;2023-07-22T02:50:53;16.80;93.60
22108;DHT22;11220;48.812;9.128;2023-07-22T02:53:19;16.70;93.60
22108;DHT22;11220;48.812;9.128;2023-07-22T02:55:44;16.70;93.60
22108;DHT22;11220;48.812;9.128;2023-07-22T02:58:11;16.70;93.70
22108;DHT22;11220;48.812;9.128;2023-07-22T03:00:37;16.70;93.60
22108;DHT22;11220;48.812;9.128;2023-07-22T03:03:02;16.70;93.60
22108;DHT22;11220;48.812;9.128;2023-07-22T03:05:31;16.70;93.60
22108;DHT22;11220;48.812;9.128;2023-07-22T03:07:57;16.70;93.60
22108;DHT22;11220;48.812;9.128;2023-07-22T03:10:23;16.70;93.60
22108;DHT22;11220;48.812;9.128;2023-07-22T03:12:51;16.60;93.70
22108;DHT22;11220;48.812;9.128;2023-07-22T03:15:20;16.60;93.70
22108;DHT22;11220;48.812;9.128;2023-07-22T03:17:46;17.70;93.90
22108;DHT22;11220;48.812;9.128;2023-07-22T03:20:12;16.60;93.60
22108;DHT22;11220;48.812;9.128;2023-07-22T03:22:42;16.60;93.70
22108;DHT22;11220;48.812;9.128;2023-07-22T03:25:11;16.60;93.60
22108;DHT22;11220;48.812;9.128;2023-07-22T03:27:39;16.50;93.50
22108;DHT22;11220;48.812;9.128;2023-07-22T03:30:06;16.50;93.40
22108;DHT22;11220;48.812;9.128;2023-07-22T03:32:33;16.50;93.50
22108;DHT22;11220;48.812;9.128;2023-07-22T03:34:58;16.50;93.50
22108;DHT22;11220;48.812;9.128;2023-07-22T03:37:24;16.50;93.50
22108;DHT22;11220;48.812;9.128;2023-07-22T03:39:49;16.40;93.50
22108;DHT22;11220;48.812;9.128;2023-07-22T03:42:16;16.50;93.80
22108;DHT22;11220;48.812;9.128;2023-07-22T03:44:41;16.50;93.80
22108;DHT22;11220;48.812;9.128;2023-07-22T03:47:07;16.40;93.60
22108;DHT22;11220;48.812;9.128;2023-07-22T03:49:32;16.40;93.60
22108;DHT22;11220;48.812;9.128;2023-07-22T03:51:58;16.40;93.60
22108;DHT22;11220;48.812;9.128;2023-07-22T03:54:23;16.30;93.60
22108;DHT22;11220;48.812;9.128;2023-07-22T03:56:49;16.40;93.80
22108;DHT22;11220;48.812;9.128;2023-07-22T03:59:14;16.40;93.90
22108;DHT22;11220;48.812;9.128;2023-07-22T04:01:40;16.30;93.90
22108;DHT22;11220;48.812;9.128;2023-07-22T04:04:05;16.40;93.90
22108;DHT22;11220;48.812;9.128;2023-07-22T04:06:31;16.40;94.00
22108;DHT22;11220;48.812;9.128;2023-07-22T04:08:56;16.40;94.00
22108;DHT22;11220;48.812;9.128;2023-07-22T04:11:22;16.40;94.10
22108;DHT22;11220;48.812;9.128;2023-07-22T04:13:47;16.40;94.10
22108;DHT22;11220;48.812;9.128;2023-07-22T04:16:14;16.40;94.20
22108;DHT22;11220;48.812;9.128;2023-07-22T04:18:39;16.40;94.20
22108;DHT22;11220;48.812;9.128;2023-07-22T04:21:05;16.40;94.20
22108;DHT22;11220;48.812;9.128;2023-07-22T04:23:30;16.40;94.20
22108;DHT22;11220;48.812;9.128;2023-07-22T04:25:58;16.40;94.20
22108;DHT22;11220;48.812;9.128;2023-07-22T04:28:24;16.40;94.30
22108;DHT22;11220;48.812;9.128;2023-07-22T04:30:57;16.40;94.30
22108;DHT22;11220;48.812;9.128;2023-07-22T04:33:23;16.40;94.40
22108;DHT22;11220;48.812;9.128;2023-07-22T04:35:49;16.40;94.40
22108;DHT22;11220;48.812;9.128;2023-07-22T04:38:14;16.40;94.60
22108;DHT22;11220;48.812;9.128;2023-07-22T04:40:43;16.40;94.70
22108;DHT22;11220;48.812;9.128;2023-07-22T04:43:09;16.50;94.90
22108;DHT22;11220;48.812;9.128;2023-07-22T04:45:34;16.50;95.00
22108;DHT22;11220;48.812;9.128;2023-07-22T04:47:59;16.50;95.20
22108;DHT22;11220;48.812;9.128;2023-07-22T04:50:25;16.50;95.30
22108;DHT22;11220;48.812;9.128;2023-07-22T04:52:51;16.50;95.40
22108;DHT22;11220;48.812;9.128;2023-07-22T04:55:17;16.50;95.60
22108;DHT22;11220;48.812;9.128;2023-07-22T04:57:42;16.50;95.60
22108;DHT22;11220;48.812;9.128;2023-07-22T05:00:11;16.60;95.70
22108;DHT22;11220;48.812;9.128;2023-07-22T05:02:42;16.60;95.70
22108;DHT22;11220;48.812;9.128;2023-07-22T05:05:11;16.60;95.80
22108;DHT22;11220;48.812;9.128;2023-07-22T05:07:37;16.70;95.80
22108;DHT22;11220;48.812;9.128;2023-07-22T05:10:02;16.70;95.90
22108;DHT22;11220;48.812;9.128;2023-07-22T05:12:28;16.70;96.00
22108;DHT22;11220;48.812;9.128;2023-07-22T05:14:54;16.70;96.10
22108;DHT22;11220;48.812;9.128;2023-07-22T05:17:19;16.70;96.10
22108;DHT22;11220;48.812;9.128;2023-07-22T05:19:45;16.70;96.20
22108;DHT22;11220;48.812;9.128;2023-07-22T05:22:10;16.70;96.30
22108;DHT22;11220;48.812;9.128;2023-07-22T05:24:36;16.80;96.40
22108;DHT22;11220;48.812;9.128;2023-07-22T05:27:01;16.80;96.50
22108;DHT22;11220;48.812;9.128;2023-07-22T05:29:27;16.80;96.60
22108;DHT22;11220;48.812;9.128;2023-07-22T05:31:52;16.90;96.60
22108;DHT22;11220;48.812;9.128;2023-07-22T05:34:18;16.90;96.70
22108;DHT22;11220;48.812;9.128;2023-07-22T05:36:43;16.90;96.80
22108;DHT22;11220;48.812;9.128;2023-07-22T05:39:09;16.90;96.90
22108;DHT22;11220;48.812;9.128;2023-07-22T05:41:35;17.00;97.00
22108;DHT22;11220;48.812;9.128;2023-07-22T05:44:01;17.00;97.00
22108;DHT22;11220;48.812;9.128;2023-07-22T05:46:26;17.00;97.10
22108;DHT22;11220;48.812;9.128;2023-07-22T05:48:52;17.00;97.10
22108;DHT22;11220;48.812;9.128;2023-07-22T05:51:18;17.10;97.20
22108;DHT22;11220;48.812;9.128;2023-07-22T05:53:44;17.10;97.30
22108;DHT22;11220;48.812;9.128;2023-07-22T05:56:09;17.10;97.40
22108;DHT22;11220;48.812;9.128;2023-07-22T05:58:35;17.10;97.40
22108;DHT22;11220;48.812;9.128;2023-07-22T06:01:01;17.20;97.40
22108;DHT22;11220;48.812;9.128;2023-07-22T06:03:26;17.20;97.20
22108;DHT22;11220;48.812;9.128;2023-07-22T06:05:52;17.30;97.00
22108;DHT22;11220;48.812;9.128;2023-07-22T06:08:17;17.30;96.80
22108;DHT22;11220;48.812;9.128;2023-07-22T06:10:43;17.30;96.50
22108;DHT22;11220;48.812;9.128;2023-07-22T06:13:09;17.30;96.40
22108;DHT22;11220;48.812;9.128;2023-07-22T06:15:34;17.40;96.40
22108;DHT22;11220;48.812;9.128;2023-07-22T06:18:01;17.40;96.20
22108;DHT22;11220;48.812;9.128;2023-07-22T06:20:26;17.40;96.30
22108;DHT22;11220;48.812;9.128;2023-07-22T06:22:52;17.50;96.20
22108;DHT22;11220;48.812;9.128;2023-07-22T06:25:18;17.50;96.30
22108;DHT22;11220;48.812;9.128;2023-07-22T06:27:43;17.60;96.50
22108;DHT22;11220;48.812;9.128;2023-07-22T06:30:09;17.60;96.50
22108;DHT22;11220;48.812;9.128;2023-07-22T06:32:37;17.60;96.60
22108;DHT22;11220;48.812;9.128;2023-07-22T06:35:03;17.70;96.50
22108;DHT22;11220;48.812;9.128;2023-07-22T06:37:29;17.70;96.40
22108;DHT22;11220;48.812;9.128;2023-07-22T06:39:55;17.70;96.40
22108;DHT22;11220;48.812;9.128;2023-07-22T06:42:20;17.70;96.30
22108;DHT22;11220;48.812;9.128;2023-07-22T06:44:46;17.80;96.30
22108;DHT22;11220;48.812;9.128;2023-07-22T06:47:11;17.90;96.30
22108;DHT22;11220;48.812;9.128;2023-07-22T06:49:37;18.00;96.00
22108;DHT22;11220;48.812;9.128;2023-07-22T06:52:03;18.10;95.70
22108;DHT22;11220;48.812;9.128;2023-07-22T06:54:29;18.30;95.70
22108;DHT22;11220;48.812;9.128;2023-07-22T06:56:54;18.40;95.60
22108;DHT22;11220;48.812;9.128;2023-07-22T06:59:20;18.40;95.40
22108;DHT22;11220;48.812;9.128;2023-07-22T07:01:45;18.50;95.00
22108;DHT22;11220;48.812;9.128;2023-07-22T07:04:11;18.60;94.90
22108;DHT22;11220;48.812;9.128;2023-07-22T07:06:36;18.70;94.60
22108;DHT22;11220;48.812;9.128;2023-07-22T07:09:03;18.80;94.50
22108;DHT22;11220;48.812;9.128;2023-07-22T07:11:30;18.90;94.20
22108;DHT22;11220;48.812;9.128;2023-07-22T07:13:56;18.90;93.90
22108;DHT22;11220;48.812;9.128;2023-07-22T07:16:28;18.90;93.80
22108;DHT22;11220;48.812;9.128;2023-07-22T07:18:53;18.80;94.00
22108;DHT22;11220;48.812;9.128;2023-07-22T07:21:20;18.80;94.20
22108;DHT22;11220;48.812;9.128;2023-07-22T07:23:46;18.70;94.30
22108;DHT22;11220;48.812;9.128;2023-07-22T07:26:11;18.70;94.40
22108;DHT22;11220;48.812;9.128;2023-07-22T07:28:37;18.70;94.70
22108;DHT22;11220;48.812;9.128;2023-07-22T07:31:02;18.70;94.50
22108;DHT22;11220;48.812;9.128;2023-07-22T07:33:28;18.70;94.40
22108;DHT22;11220;48.812;9.128;2023-07-22T07:35:54;18.80;94.60
22108;DHT22;11220;48.812;9.128;2023-07-22T07:38:19;19.60;94.70
22108;DHT22;11220;48.812;9.128;2023-07-22T07:40:45;18.70;94.30
22108;DHT22;11220;48.812;9.128;2023-07-22T07:43:10;18.70;94.40
22108;DHT22;11220;48.812;9.128;2023-07-22T07:45:39;18.80;94.60
22108;DHT22;11220;48.812;9.128;2023-07-22T07:48:05;18.90;94.40
22108;DHT22;11220;48.812;9.128;2023-07-22T07:50:32;18.90;94.20
22108;DHT22;11220;48.812;9.128;2023-07-22T07:52:58;19.30;94.20
22108;DHT22;11220;48.812;9.128;2023-07-22T07:55:24;19.20;94.00
22108;DHT22;11220;48.812;9.128;2023-07-22T07:57:50;19.30;93.80
22108;DHT22;11220;48.812;9.128;2023-07-22T08:00:16;19.40;93.50
22108;DHT22;11220;48.812;9.128;2023-07-22T08:02:42;19.50;93.40
22108;DHT22;11220;48.812;9.128;2023-07-22T08:05:07;19.60;93.20
22108;DHT22;11220;48.812;9.128;2023-07-22T08:07:33;19.60;92.80
22108;DHT22;11220;48.812;9.128;2023-07-22T08:09:59;19.50;92.90
22108;DHT22;11220;48.812;9.128;2023-07-22T08:12:24;19.60;93.10
22108;DHT22;11220;48.812;9.128;2023-07-22T08:14:53;19.60;92.90
22108;DHT22;11220;48.812;9.128;2023-07-22T08:17:18;19.60;92.60
22108;DHT22;11220;48.812;9.128;2023-07-22T08:19:44;19.70;92.40
22108;DHT22;11220;48.812;9.128;2023-07-22T08:22:09;19.70;92.30
22108;DHT22;11220;48.812;9.128;2023-07-22T08:24:35;19.80;92.30
22108;DHT22;11220;48.812;9.128;2023-07-22T08:27:00;19.90;92.20
22108;DHT22;11220;48.812;9.128;2023-07-22T08:29:26;19.90;91.70
22108;DHT22;11220;48.812;9.128;2023-07-22T08:31:51;20.00;91.60
22108;DHT22;11220;48.812;9.128;2023-07-22T08:34:17;20.00;91.60
22108;DHT22;11220;48.812;9.128;2023-07-22T08:36:42;20.00;91.70
22108;DHT22;11220;48.812;9.128;2023-07-22T08:39:08;20.10;91.20
22108;DHT22;11220;48.812;9.128;2023-07-22T08:41:33;20.00;90.60
22108;DHT22;11220;48.812;9.128;2023-07-22T08:44:00;20.00;90.80
22108;DHT22;11220;48.812;9.128;2023-07-22T08:46:33;20.10;90.70
22108;DHT22;11220;48.812;9.128;2023-07-22T08:49:00;20.00;90.90
22108;DHT22;11220;48.812;9.128;2023-07-22T08:51:26;20.10;91.30
22108;DHT22;11220;48.812;9.128;2023-07-22T08:53:54;20.10;91.30
22108;DHT22;11220;48.812;9.128;2023-07-22T08:56:23;20.10;91.30
22108;DHT22;11220;48.812;9.128;2023-07-22T08:58:50;20.20;91.20
22108;DHT22;11220;48.812;9.128;2023-07-22T09:01:16;20.20;90.50
22108;DHT22;11220;48.812;9.128;2023-07-22T09:03:43;20.20;90.50
22108;DHT22;11220;48.812;9.128;2023-07-22T09:06:09;20.20;90.50
22108;DHT22;11220;48.812;9.128;2023-07-22T09:08:35;20.20;90.60
22108;DHT22;11220;48.812;9.128;2023-07-22T09:11:01;20.20;91.00
22108;DHT22;11220;48.812;9.128;2023-07-22T09:13:28;20.30;91.00
22108;DHT22;11220;48.812;9.128;2023-07-22T09:15:56;20.30;91.00
22108;DHT22;11220;48.812;9.128;2023-07-22T09:18:22;20.40;90.90
22108;DHT22;11220;48.812;9.128;2023-07-22T09:20:48;20.40;90.90
22108;DHT22;11220;48.812;9.128;2023-07-22T09:23:14;20.40;90.90
22108;DHT22;11220;48.812;9.128;2023-07-22T09:25:40;20.40;90.80
22108;DHT22;11220;48.812;9.128;2023-07-22T09:28:06;20.50;91.20
22108;DHT22;11220;48.812;9.128;2023-07-22T09:30:34;20.50;91.30
22108;DHT22;11220;48.812;9.128;2023-07-22T09:33:02;20.50;90.80
22108;DHT22;11220;48.812;9.128;2023-07-22T09:35:48;20.60;90.70
22108;DHT22;11220;48.812;9.128;2023-07-22T09:38:14;20.60;90.80
22108;DHT22;11220;48.812;9.128;2023-07-22T09:40:42;20.60;90.40
22108;DHT22;11220;48.812;9.128;2023-07-22T09:43:11;21.00;90.50
22108;DHT22;11220;48.812;9.128;2023-07-22T09:45:39;20.60;90.30
22108;DHT22;11220;48.812;9.128;2023-07-22T09:48:05;20.60;90.40
22108;DHT22;11220;48.812;9.128;2023-07-22T09:50:31;20.60;90.40
22108;DHT22;11220;48.812;9.128;2023-07-22T09:52:58;20.60;89.00
22108;DHT22;11220;48.812;9.128;2023-07-22T09:55:29;20.70;88.80
22108;DHT22;11220;48.812;9.128;2023-07-22T09:57:55;20.70;89.70
22108;DHT22;11220;48.812;9.128;2023-07-22T10:00:23;20.70;90.20
22108;DHT22;11220;48.812;9.128;2023-07-22T10:02:51;20.80;89.80
22108;DHT22;11220;48.812;9.128;2023-07-22T10:05:19;20.90;89.20
22108;DHT22;11220;48.812;9.128;2023-07-22T10:07:54;21.00;88.90
22108;DHT22;11220;48.812;9.128;2023-07-22T10:10:35;21.00;86.80
22108;DHT22;11220;48.812;9.128;2023-07-22T10:13:02;21.00;86.40
22108;DHT22;11220;48.812;9.128;2023-07-22T10:15:32;21.10;87.70
22108;DHT22;11220;48.812;9.128;2023-07-22T10:18:03;21.10;88.10
22108;DHT22;11220;48.812;9.128;2023-07-22T10:20:29;21.10;88.30
22108;DHT22;11220;48.812;9.128;2023-07-22T10:22:56;21.10;87.20
22108;DHT22;11220;48.812;9.128;2023-07-22T10:25:22;21.30;87.30
22108;DHT22;11220;48.812;9.128;2023-07-22T10:27:52;21.10;88.00
22108;DHT22;11220;48.812;9.128;2023-07-22T10:30:18;21.10;88.30
22108;DHT22;11220;48.812;9.128;2023-07-22T10:32:51;21.10;88.60
22108;DHT22;11220;48.812;9.128;2023-07-22T10:35:40;21.20;88.70
22108;DHT22;11220;48.812;9.128;2023-07-22T10:38:13;21.20;88.80
22108;DHT22;11220;48.812;9.128;2023-07-22T10:40:53;21.20;89.00
22108;DHT22;11220;48.812;9.128;2023-07-22T10:43:27;21.30;89.10
22108;DHT22;11220;48.812;9.128;2023-07-22T10:45:56;21.30;89.00
22108;DHT22;11220;48.812;9.128;2023-07-22T10:48:27;21.30;89.30
22108;DHT22;11220;48.812;9.128;2023-07-22T10:51:02;21.30;89.40
22108;DHT22;11220;48.812;9.128;2023-07-22T10:53:30;21.30;89.40
22108;DHT22;11220;48.812;9.128;2023-07-22T10:56:21;21.40;89.40
22108;DHT22;11220;48.812;9.128;2023-07-22T11:06:38;21.40;90.00
22108;DHT22;11220;48.812;9.128;2023-07-22T11:09:04;21.40;90.10
22108;DHT22;11220;48.812;9.128;2023-07-22T11:11:36;21.50;90.20
22108;DHT22;11220;48.812;9.128;2023-07-22T11:14:17;21.50;90.30
22108;DHT22;11220;48.812;9.128;2023-07-22T11:16:45;21.50;90.40
22108;DHT22;11220;48.812;9.128;2023-07-22T11:19:13;21.50;90.50
22108;DHT22;11220;48.812;9.128;2023-07-22T11:21:39;21.60;90.60
22108;DHT22;11220;48.812;9.128;2023-07-22T11:24:05;21.50;90.70
22108;DHT22;11220;48.812;9.128;2023-07-22T11:26:32;21.50;90.90
22108;DHT22;11220;48.812;9.128;2023-07-22T11:28:59;21.50;90.90
22108;DHT22;11220;48.812;9.128;2023-07-22T11:31:42;21.50;90.80
22108;DHT22;11220;48.812;9.128;2023-07-22T11:34:10;21.60;90.90
22108;DHT22;11220;48.812;9.128;2023-07-22T11:36:35;21.50;90.80
22108;DHT22;11220;48.812;9.128;2023-07-22T11:39:07;21.60;90.10
22108;DHT22;11220;48.812;9.128;2023-07-22T11:41:33;21.50;88.60
22108;DHT22;11220;48.812;9.128;2023-07-22T11:44:04;21.50;87.20
22108;DHT22;11220;48.812;9.128;2023-07-22T11:46:46;21.50;88.10
22108;DHT22;11220;48.812;9.128;2023-07-22T11:49:12;21.50;89.20
22108;DHT22;11220;48.812;9.128;2023-07-22T11:51:42;21.50;88.00
22108;DHT22;11220;48.812;9.128;2023-07-22T11:54:08;21.50;87.60
22108;DHT22;11220;48.812;9.128;2023-07-22T11:56:34;21.90;88.50
22108;DHT22;11220;48.812;9.128;2023-07-22T11:58:59;21.60;88.60
22108;DHT22;11220;48.812;9.128;2023-07-22T12:01:32;21.70;88.10
22108;DHT22;11220;48.812;9.128;2023-07-22T12:03:57;21.60;88.60
22108;DHT22;11220;48.812;9.128;2023-07-22T12:06:27;21.60;89.00
22108;DHT22;11220;48.812;9.128;2023-07-22T12:08:52;21.60;89.90
22108;DHT22;11220;48.812;9.128;2023-07-22T12:13:44;21.60;90.30
22108;DHT22;11220;48.812;9.128;2023-07-22T12:16:21;21.60;90.30
22108;DHT22;11220;48.812;9.128;2023-07-22T12:18:48;21.80;90.10
22108;DHT22;11220;48.812;9.128;2023-07-22T12:21:14;21.70;88.50
22108;DHT22;11220;48.812;9.128;2023-07-22T12:23:40;21.70;88.60
22108;DHT22;11220;48.812;9.128;2023-07-22T12:26:06;21.70;86.50
22108;DHT22;11220;48.812;9.128;2023-07-22T12:28:32;21.70;85.70
22108;DHT22;11220;48.812;9.128;2023-07-22T12:30:58;21.70;86.60
22108;DHT22;11220;48.812;9.128;2023-07-22T12:33:25;21.70;86.80
22108;DHT22;11220;48.812;9.128;2023-07-22T12:35:53;21.60;86.40
22108;DHT22;11220;48.812;9.128;2023-07-22T12:38:18;21.70;86.20
22108;DHT22;11220;48.812;9.128;2023-07-22T12:40:44;21.70;85.30
22108;DHT22;11220;48.812;9.128;2023-07-22T12:43:09;21.70;86.00
22108;DHT22;11220;48.812;9.128;2023-07-22T12:45:35;21.70;86.70
22108;DHT22;11220;48.812;9.128;2023-07-22T12:48:01;21.70;86.40
22108;DHT22;11220;48.812;9.128;2023-07-22T12:50:26;21.70;85.40
22108;DHT22;11220;48.812;9.128;2023-07-22T12:52:52;21.70;85.80
22108;DHT22;11220;48.812;9.128;2023-07-22T12:55:17;21.80;85.40
22108;DHT22;11220;48.812;9.128;2023-07-22T12:57:43;21.80;85.90
22108;DHT22;11220;48.812;9.128;2023-07-22T13:00:09;21.80;85.70
22108;DHT22;11220;48.812;9.128;2023-07-22T13:02:35;21.80;83.60
22108;DHT22;11220;48.812;9.128;2023-07-22T13:05:01;21.80;84.50
22108;DHT22;11220;48.812;9.128;2023-07-22T13:07:27;21.80;85.50
22108;DHT22;11220;48.812;9.128;2023-07-22T13:09:52;21.80;86.30
22108;DHT22;11220;48.812;9.128;2023-07-22T13:12:22;21.80;86.30
22108;DHT22;11220;48.812;9.128;2023-07-22T13:14:47;21.90;85.60
22108;DHT22;11220;48.812;9.128;2023-07-22T13:17:13;21.90;84.70
22108;DHT22;11220;48.812;9.128;2023-07-22T13:19:38;21.90;85.90
22108;DHT22;11220;48.812;9.128;2023-07-22T13:22:04;21.90;86.70
22108;DHT22;11220;48.812;9.128;2023-07-22T13:24:29;22.60;87.60
22108;DHT22;11220;48.812;9.128;2023-07-22T13:26:55;22.10;87.60
22108;DHT22;11220;48.812;9.128;2023-07-22T13:29:21;22.20;87.70
22108;DHT22;11220;48.812;9.128;2023-07-22T13:31:46;22.20;87.10
22108;DHT22;11220;48.812;9.128;2023-07-22T13:34:12;22.20;85.80
22108;DHT22;11220;48.812;9.128;2023-07-22T13:36:38;22.20;84.10
22108;DHT22;11220;48.812;9.128;2023-07-22T13:39:03;22.20;84.40
22108;DHT22;11220;48.812;9.128;2023-07-22T13:41:29;22.40;85.40
22108;DHT22;11220;48.812;9.128;2023-07-22T13:43:54;22.40;85.30
22108;DHT22;11220;48.812;9.128;2023-07-22T13:46:20;22.40;84.20
22108;DHT22;11220;48.812;9.128;2023-07-22T13:48:46;22.40;84.50
22108;DHT22;11220;48.812;9.128;2023-07-22T13:51:11;22.40;84.50
22108;DHT22;11220;48.812;9.128;2023-07-22T13:53:37;22.30;82.40
22108;DHT22;11220;48.812;9.128;2023-07-22T13:56:02;22.60;83.30
22108;DHT22;11220;48.812;9.128;2023-07-22T13:58:28;22.40;83.70
22108;DHT22;11220;48.812;9.128;2023-07-22T14:00:54;22.30;82.80
22108;DHT22;11220;48.812;9.128;2023-07-22T14:03:19;22.40;82.40
22108;DHT22;11220;48.812;9.128;2023-07-22T14:05:46;22.40;82.70
22108;DHT22;11220;48.812;9.128;2023-07-22T14:08:12;22.70;82.70
22108;DHT22;11220;48.812;9.128;2023-07-22T14:10:37;22.50;82.60
22108;DHT22;11220;48.812;9.128;2023-07-22T14:13:03;22.50;82.20
22108;DHT22;11220;48.812;9.128;2023-07-22T14:15:28;22.40;82.00
22108;DHT22;11220;48.812;9.128;2023-07-22T14:17:54;22.50;82.00
22108;DHT22;11220;48.812;9.128;2023-07-22T14:20:19;22.40;81.90
22108;DHT22;11220;48.812;9.128;2023-07-22T14:22:45;22.50;82.80
22108;DHT22;11220;48.812;9.128;2023-07-22T14:25:11;22.50;84.70
22108;DHT22;11220;48.812;9.128;2023-07-22T14:27:38;22.60;83.60
22108;DHT22;11220;48.812;9.128;2023-07-22T14:30:05;22.60;82.40
22108;DHT22;11220;48.812;9.128;2023-07-22T14:32:31;22.60;82.80
22108;DHT22;11220;48.812;9.128;2023-07-22T14:34:56;22.60;83.30
22108;DHT22;11220;48.812;9.128;2023-07-22T14:37:22;22.60;82.80
22108;DHT22;11220;48.812;9.128;2023-07-22T14:39:49;22.70;82.20
22108;DHT22;11220;48.812;9.128;2023-07-22T14:42:14;22.70;82.50
22108;DHT22;11220;48.812;9.128;2023-07-22T14:44:40;23.00;81.40
22108;DHT22;11220;48.812;9.128;2023-07-22T14:47:05;22.80;79.80
22108;DHT22;11220;48.812;9.128;2023-07-22T14:49:31;22.70;79.60
22108;DHT22;11220;48.812;9.128;2023-07-22T14:51:56;22.70;80.80
22108;DHT22;11220;48.812;9.128;2023-07-22T14:54:22;22.80;82.20
22108;DHT22;11220;48.812;9.128;2023-07-22T14:56:48;22.80;83.00
22108;DHT22;11220;48.812;9.128;2023-07-22T14:59:15;23.40;82.40
22108;DHT22;11220;48.812;9.128;2023-07-22T15:01:41;22.80;81.70
22108;DHT22;11220;48.812;9.128;2023-07-22T15:04:07;22.70;80.60
22108;DHT22;11220;48.812;9.128;2023-07-22T15:06:33;22.70;79.70
22108;DHT22;11220;48.812;9.128;2023-07-22T15:09:00;22.80;79.50
22108;DHT22;11220;48.812;9.128;2023-07-22T15:11:25;23.10;79.40
22108;DHT22;11220;48.812;9.128;2023-07-22T15:13:51;22.70;78.50
22108;DHT22;11220;48.812;9.128;2023-07-22T15:16:16;22.80;80.30
22108;DHT22;11220;48.812;9.128;2023-07-22T15:18:42;22.80;79.60
22108;DHT22;11220;48.812;9.128;2023-07-22T15:21:08;22.70;79.00
22108;DHT22;11220;48.812;9.128;2023-07-22T15:23:33;22.70;78.90
22108;DHT22;11220;48.812;9.128;2023-07-22T15:25:59;22.60;79.00
22108;DHT22;11220;48.812;9.128;2023-07-22T15:28:26;22.60;80.00
22108;DHT22;11220;48.812;9.128;2023-07-22T15:30:53;22.60;79.50
22108;DHT22;11220;48.812;9.128;2023-07-22T15:33:19;22.70;79.10
22108;DHT22;11220;48.812;9.128;2023-07-22T15:35:47;22.90;79.50